Impacts TAF Board
For situational awareness. Not to be used for flight planning purposes.
IDs:

KPHL - Philadelphia Intl, PA, US

Issued at 0215 UTC 19 Feb 2019
Updated at 0255 UTC 19 Feb 2019
Potential Impact None Slight Moderate High
Time0154Z 19/03Z 19/04Z 19/05Z 19/06Z 19/07Z 19/08Z 19/09Z 19/10Z 19/11Z 19/12Z 19/13Z 19/14Z 19/15Z>>
Type OBS PRVL PRVL PRVL PRVL PRVL PRVL PRVL PRVL PRVL PRVL PRVL PRVL PRVL
VIS 10 >6 >6 >6 >6 >6 >6 >6 >6 >6 >6 >6 >6 >6
CIG 47 45 -- -- -- -- -- -- -- -- -- -- -- --
Cover BKN BKN SCT SCT SCT SCT SCT SCT SCT SCT SCT SCT SCT SCT
FltCat VFR VFR VFR VFR VFR VFR VFR VFR VFR VFR VFR VFR VFR VFR
WX -- -- -- -- -- -- -- -- -- -- -- -- -- --
WDir 340 330 320 320 320 320 320 320 320 320 320 320 320 320
WSpd 10 10 10 10 10 10 8 8 8 8 8 8 8 8
WGst -- 18 -- -- -- -- -- -- -- -- -- -- -- --
Raw TAF
KPHL 190215Z 1902/2006 33010G18KT P6SM BKN045
  FM190400 32010KT P6SM SCT045
  FM190800 32008KT P6SM SCT200
  FM200400 VRB03KT P6SM BKN150


Raw METAR
KPHL 190154Z 34010KT 10SM BKN047 01/M06 A3028 RMK AO2 SLP255 T00111061 $
KPHL 190054Z 31016G21KT 10SM BKN050 BKN090 02/M07 A3025 RMK AO2 SLP243 T00221072 $
KPHL 182354Z 31017G25KT 10SM BKN050 BKN090 03/M07 A3021 RMK AO2 PK WND 30026/2310 SLP230 T00281067 10072 20028 53058 $

METAR Board
Radar Display
Forecast Discussion
For situational awareness. Not to be used for flight planning purposes.